sensor_id;sensor_type;location;lat;lon;timestamp;P1;durP1;ratioP1;P2;durP2;ratioP2
12519;SDS011;6325;49.540;8.364;2023-10-13T00:00:49;7.18;;;5.97;;
12519;SDS011;6325;49.540;8.364;2023-10-13T00:03:22;6.82;;;4.85;;
12519;SDS011;6325;49.540;8.364;2023-10-13T00:05:50;6.25;;;5.00;;
12519;SDS011;6325;49.540;8.364;2023-10-13T00:08:18;8.17;;;5.23;;
12519;SDS011;6325;49.540;8.364;2023-10-13T00:10:49;7.03;;;5.05;;
12519;SDS011;6325;49.540;8.364;2023-10-13T00:13:17;6.45;;;5.20;;
12519;SDS011;6325;49.540;8.364;2023-10-13T00:15:45;6.55;;;5.05;;
12519;SDS011;6325;49.540;8.364;2023-10-13T00:18:22;6.15;;;4.70;;
12519;SDS011;6325;49.540;8.364;2023-10-13T00:20:51;5.53;;;4.82;;
12519;SDS011;6325;49.540;8.364;2023-10-13T00:23:21;5.50;;;5.00;;
12519;SDS011;6325;49.540;8.364;2023-10-13T00:25:51;5.90;;;4.68;;
12519;SDS011;6325;49.540;8.364;2023-10-13T00:28:25;6.30;;;4.93;;
12519;SDS011;6325;49.540;8.364;2023-10-13T00:31:00;5.78;;;4.93;;
12519;SDS011;6325;49.540;8.364;2023-10-13T00:33:35;5.80;;;5.07;;
12519;SDS011;6325;49.540;8.364;2023-10-13T00:36:03;6.07;;;4.60;;
12519;SDS011;6325;49.540;8.364;2023-10-13T00:38:30;5.03;;;4.50;;
12519;SDS011;6325;49.540;8.364;2023-10-13T00:40:58;5.43;;;4.93;;
12519;SDS011;6325;49.540;8.364;2023-10-13T00:43:43;5.70;;;4.90;;
12519;SDS011;6325;49.540;8.364;2023-10-13T00:46:13;5.28;;;4.75;;
12519;SDS011;6325;49.540;8.364;2023-10-13T00:48:43;5.93;;;4.63;;
12519;SDS011;6325;49.540;8.364;2023-10-13T00:51:17;6.18;;;4.88;;
12519;SDS011;6325;49.540;8.364;2023-10-13T00:53:47;5.70;;;4.55;;
12519;SDS011;6325;49.540;8.364;2023-10-13T00:56:15;5.55;;;4.75;;
12519;SDS011;6325;49.540;8.364;2023-10-13T00:58:46;5.28;;;4.78;;
12519;SDS011;6325;49.540;8.364;2023-10-13T01:01:15;5.15;;;4.63;;
12519;SDS011;6325;49.540;8.364;2023-10-13T01:03:47;6.35;;;5.00;;
12519;SDS011;6325;49.540;8.364;2023-10-13T01:06:15;6.15;;;4.93;;
12519;SDS011;6325;49.540;8.364;2023-10-13T01:08:45;5.95;;;4.90;;
12519;SDS011;6325;49.540;8.364;2023-10-13T01:11:15;6.28;;;4.82;;
12519;SDS011;6325;49.540;8.364;2023-10-13T01:13:43;6.03;;;4.90;;
12519;SDS011;6325;49.540;8.364;2023-10-13T01:16:13;4.90;;;4.50;;
12519;SDS011;6325;49.540;8.364;2023-10-13T01:18:41;5.22;;;4.72;;
12519;SDS011;6325;49.540;8.364;2023-10-13T01:21:13;5.20;;;4.50;;
12519;SDS011;6325;49.540;8.364;2023-10-13T01:23:46;5.28;;;4.20;;
12519;SDS011;6325;49.540;8.364;2023-10-13T01:26:13;4.80;;;4.30;;
12519;SDS011;6325;49.540;8.364;2023-10-13T01:28:46;6.53;;;4.73;;
12519;SDS011;6325;49.540;8.364;2023-10-13T01:31:13;5.72;;;4.40;;
12519;SDS011;6325;49.540;8.364;2023-10-13T01:33:49;5.32;;;4.40;;
12519;SDS011;6325;49.540;8.364;2023-10-13T01:36:19;4.78;;;4.28;;
12519;SDS011;6325;49.540;8.364;2023-10-13T01:38:47;5.40;;;4.43;;
12519;SDS011;6325;49.540;8.364;2023-10-13T01:41:13;5.13;;;4.35;;
12519;SDS011;6325;49.540;8.364;2023-10-13T01:43:41;5.40;;;4.55;;
12519;SDS011;6325;49.540;8.364;2023-10-13T01:46:07;4.78;;;4.35;;
12519;SDS011;6325;49.540;8.364;2023-10-13T01:48:34;5.32;;;4.72;;
12519;SDS011;6325;49.540;8.364;2023-10-13T01:51:04;5.75;;;4.78;;
12519;SDS011;6325;49.540;8.364;2023-10-13T01:53:34;4.83;;;4.33;;
12519;SDS011;6325;49.540;8.364;2023-10-13T01:56:03;5.25;;;4.60;;
12519;SDS011;6325;49.540;8.364;2023-10-13T01:58:35;6.38;;;4.55;;
12519;SDS011;6325;49.540;8.364;2023-10-13T02:01:01;5.07;;;4.57;;
12519;SDS011;6325;49.540;8.364;2023-10-13T02:03:32;5.50;;;4.78;;
12519;SDS011;6325;49.540;8.364;2023-10-13T02:05:58;5.33;;;4.60;;
12519;SDS011;6325;49.540;8.364;2023-10-13T02:08:29;5.32;;;4.45;;
12519;SDS011;6325;49.540;8.364;2023-10-13T02:10:57;5.88;;;4.70;;
12519;SDS011;6325;49.540;8.364;2023-10-13T02:13:27;6.15;;;4.40;;
12519;SDS011;6325;49.540;8.364;2023-10-13T02:15:55;6.25;;;4.75;;
12519;SDS011;6325;49.540;8.364;2023-10-13T02:18:23;4.68;;;4.25;;
12519;SDS011;6325;49.540;8.364;2023-10-13T02:20:51;5.13;;;4.60;;
12519;SDS011;6325;49.540;8.364;2023-10-13T02:23:20;5.15;;;4.40;;
12519;SDS011;6325;49.540;8.364;2023-10-13T02:25:47;6.40;;;4.80;;
12519;SDS011;6325;49.540;8.364;2023-10-13T02:28:17;5.75;;;4.75;;
12519;SDS011;6325;49.540;8.364;2023-10-13T02:30:48;5.15;;;4.53;;
12519;SDS011;6325;49.540;8.364;2023-10-13T02:33:16;5.10;;;4.60;;
12519;SDS011;6325;49.540;8.364;2023-10-13T02:35:46;5.47;;;4.47;;
12519;SDS011;6325;49.540;8.364;2023-10-13T02:38:18;6.70;;;4.80;;
12519;SDS011;6325;49.540;8.364;2023-10-13T02:40:59;5.43;;;4.45;;
12519;SDS011;6325;49.540;8.364;2023-10-13T02:43:32;6.00;;;4.63;;
12519;SDS011;6325;49.540;8.364;2023-10-13T02:46:00;5.68;;;4.78;;
12519;SDS011;6325;49.540;8.364;2023-10-13T02:48:27;6.38;;;4.55;;
12519;SDS011;6325;49.540;8.364;2023-10-13T02:50:59;6.57;;;4.80;;
12519;SDS011;6325;49.540;8.364;2023-10-13T02:53:39;5.28;;;4.40;;
12519;SDS011;6325;49.540;8.364;2023-10-13T02:56:06;7.17;;;4.70;;
12519;SDS011;6325;49.540;8.364;2023-10-13T02:58:34;4.90;;;4.40;;
12519;SDS011;6325;49.540;8.364;2023-10-13T03:01:12;5.83;;;4.50;;
12519;SDS011;6325;49.540;8.364;2023-10-13T03:03:45;4.75;;;4.20;;
12519;SDS011;6325;49.540;8.364;2023-10-13T03:06:15;5.43;;;4.43;;
12519;SDS011;6325;49.540;8.364;2023-10-13T03:08:46;4.72;;;4.13;;
12519;SDS011;6325;49.540;8.364;2023-10-13T03:11:12;4.88;;;4.30;;
12519;SDS011;6325;49.540;8.364;2023-10-13T03:13:39;5.28;;;3.95;;
12519;SDS011;6325;49.540;8.364;2023-10-13T03:16:14;5.38;;;4.20;;
12519;SDS011;6325;49.540;8.364;2023-10-13T03:18:46;4.63;;;3.90;;
12519;SDS011;6325;49.540;8.364;2023-10-13T03:21:21;5.32;;;3.97;;
12519;SDS011;6325;49.540;8.364;2023-10-13T03:23:58;5.28;;;4.00;;
12519;SDS011;6325;49.540;8.364;2023-10-13T03:26:32;6.63;;;4.10;;
12519;SDS011;6325;49.540;8.364;2023-10-13T03:29:00;5.40;;;4.10;;
12519;SDS011;6325;49.540;8.364;2023-10-13T03:31:30;4.30;;;3.65;;
12519;SDS011;6325;49.540;8.364;2023-10-13T03:34:02;5.03;;;3.60;;
12519;SDS011;6325;49.540;8.364;2023-10-13T03:36:29;5.57;;;3.83;;
12519;SDS011;6325;49.540;8.364;2023-10-13T03:39:13;6.20;;;3.70;;
12519;SDS011;6325;49.540;8.364;2023-10-13T03:41:40;5.20;;;3.78;;
12519;SDS011;6325;49.540;8.364;2023-10-13T03:44:10;5.18;;;3.55;;
12519;SDS011;6325;49.540;8.364;2023-10-13T03:46:47;6.07;;;3.70;;
12519;SDS011;6325;49.540;8.364;2023-10-13T03:49:14;6.28;;;3.45;;
12519;SDS011;6325;49.540;8.364;2023-10-13T03:51:46;6.70;;;3.70;;
12519;SDS011;6325;49.540;8.364;2023-10-13T03:54:14;4.85;;;3.38;;
12519;SDS011;6325;49.540;8.364;2023-10-13T03:56:42;5.85;;;3.22;;
12519;SDS011;6325;49.540;8.364;2023-10-13T03:59:10;4.68;;;3.45;;
12519;SDS011;6325;49.540;8.364;2023-10-13T04:01:44;4.57;;;3.70;;
12519;SDS011;6325;49.540;8.364;2023-10-13T04:04:15;5.17;;;3.80;;
12519;SDS011;6325;49.540;8.364;2023-10-13T04:06:59;4.40;;;3.42;;
12519;SDS011;6325;49.540;8.364;2023-10-13T04:09:45;5.65;;;3.70;;
12519;SDS011;6325;49.540;8.364;2023-10-13T04:12:30;5.00;;;3.78;;
12519;SDS011;6325;49.540;8.364;2023-10-13T04:15:15;4.75;;;3.70;;
12519;SDS011;6325;49.540;8.364;2023-10-13T04:17:48;5.53;;;3.50;;
12519;SDS011;6325;49.540;8.364;2023-10-13T04:20:17;4.78;;;3.50;;
12519;SDS011;6325;49.540;8.364;2023-10-13T04:23:03;3.63;;;3.27;;
12519;SDS011;6325;49.540;8.364;2023-10-13T04:25:50;4.65;;;3.53;;
12519;SDS011;6325;49.540;8.364;2023-10-13T04:28:46;5.47;;;3.90;;
12519;SDS011;6325;49.540;8.364;2023-10-13T04:31:21;4.17;;;3.70;;
12519;SDS011;6325;49.540;8.364;2023-10-13T04:34:11;6.28;;;3.60;;
12519;SDS011;6325;49.540;8.364;2023-10-13T04:36:54;4.32;;;3.55;;
12519;SDS011;6325;49.540;8.364;2023-10-13T04:39:36;4.80;;;3.80;;
12519;SDS011;6325;49.540;8.364;2023-10-13T04:42:04;5.38;;;3.47;;
12519;SDS011;6325;49.540;8.364;2023-10-13T04:44:38;5.10;;;3.85;;
12519;SDS011;6325;49.540;8.364;2023-10-13T04:47:17;4.78;;;3.88;;
12519;SDS011;6325;49.540;8.364;2023-10-13T04:49:46;5.85;;;3.72;;
12519;SDS011;6325;49.540;8.364;2023-10-13T04:52:19;5.75;;;3.67;;
12519;SDS011;6325;49.540;8.364;2023-10-13T04:55:00;4.93;;;3.60;;
12519;SDS011;6325;49.540;8.364;2023-10-13T04:57:42;4.53;;;3.40;;
12519;SDS011;6325;49.540;8.364;2023-10-13T05:00:13;4.95;;;3.28;;
12519;SDS011;6325;49.540;8.364;2023-10-13T05:03:06;5.17;;;3.80;;
12519;SDS011;6325;49.540;8.364;2023-10-13T05:05:51;4.57;;;4.10;;
12519;SDS011;6325;49.540;8.364;2023-10-13T05:08:57;4.70;;;3.95;;
12519;SDS011;6325;49.540;8.364;2023-10-13T05:11:42;5.57;;;4.27;;
12519;SDS011;6325;49.540;8.364;2023-10-13T05:14:27;5.80;;;4.28;;
12519;SDS011;6325;49.540;8.364;2023-10-13T05:17:11;4.77;;;4.20;;
12519;SDS011;6325;49.540;8.364;2023-10-13T05:20:07;5.35;;;4.38;;
12519;SDS011;6325;49.540;8.364;2023-10-13T05:22:52;5.63;;;4.18;;
12519;SDS011;6325;49.540;8.364;2023-10-13T05:25:38;5.57;;;4.13;;
12519;SDS011;6325;49.540;8.364;2023-10-13T05:28:23;5.60;;;4.22;;
12519;SDS011;6325;49.540;8.364;2023-10-13T05:31:08;5.45;;;4.35;;
12519;SDS011;6325;49.540;8.364;2023-10-13T05:33:53;5.18;;;4.10;;
12519;SDS011;6325;49.540;8.364;2023-10-13T05:36:38;4.60;;;4.03;;
12519;SDS011;6325;49.540;8.364;2023-10-13T05:39:23;5.00;;;4.50;;
12519;SDS011;6325;49.540;8.364;2023-10-13T05:42:09;5.72;;;4.40;;
12519;SDS011;6325;49.540;8.364;2023-10-13T05:44:53;5.57;;;4.32;;
12519;SDS011;6325;49.540;8.364;2023-10-13T05:47:42;5.22;;;4.15;;
12519;SDS011;6325;49.540;8.364;2023-10-13T05:50:12;5.72;;;4.60;;
12519;SDS011;6325;49.540;8.364;2023-10-13T05:52:54;5.72;;;4.60;;
12519;SDS011;6325;49.540;8.364;2023-10-13T05:55:39;6.07;;;4.30;;
12519;SDS011;6325;49.540;8.364;2023-10-13T05:58:25;5.18;;;4.55;;
12519;SDS011;6325;49.540;8.364;2023-10-13T06:01:13;6.28;;;4.25;;
12519;SDS011;6325;49.540;8.364;2023-10-13T06:03:57;5.10;;;4.05;;
12519;SDS011;6325;49.540;8.364;2023-10-13T06:06:42;5.10;;;4.40;;
12519;SDS011;6325;49.540;8.364;2023-10-13T06:09:27;5.25;;;4.28;;
12519;SDS011;6325;49.540;8.364;2023-10-13T06:12:12;4.93;;;4.13;;
12519;SDS011;6325;49.540;8.364;2023-10-13T06:14:58;5.15;;;4.30;;
12519;SDS011;6325;49.540;8.364;2023-10-13T06:17:42;4.57;;;4.00;;
12519;SDS011;6325;49.540;8.364;2023-10-13T06:20:27;6.93;;;4.47;;
12519;SDS011;6325;49.540;8.364;2023-10-13T06:23:12;5.63;;;4.33;;
12519;SDS011;6325;49.540;8.364;2023-10-13T06:25:56;4.78;;;4.30;;
12519;SDS011;6325;49.540;8.364;2023-10-13T06:28:41;4.50;;;4.10;;
12519;SDS011;6325;49.540;8.364;2023-10-13T06:31:12;4.93;;;3.80;;
12519;SDS011;6325;49.540;8.364;2023-10-13T06:33:46;5.10;;;4.07;;
12519;SDS011;6325;49.540;8.364;2023-10-13T06:36:12;5.63;;;3.90;;
12519;SDS011;6325;49.540;8.364;2023-10-13T06:38:41;6.32;;;4.18;;
12519;SDS011;6325;49.540;8.364;2023-10-13T06:41:08;4.10;;;3.70;;
12519;SDS011;6325;49.540;8.364;2023-10-13T06:43:44;4.90;;;3.87;;
12519;SDS011;6325;49.540;8.364;2023-10-13T06:46:25;4.90;;;3.67;;
12519;SDS011;6325;49.540;8.364;2023-10-13T06:48:53;4.10;;;3.70;;
12519;SDS011;6325;49.540;8.364;2023-10-13T06:51:20;4.57;;;3.80;;
12519;SDS011;6325;49.540;8.364;2023-10-13T06:53:50;4.40;;;3.75;;
12519;SDS011;6325;49.540;8.364;2023-10-13T06:56:21;5.00;;;3.90;;
12519;SDS011;6325;49.540;8.364;2023-10-13T06:58:52;4.93;;;4.07;;
12519;SDS011;6325;49.540;8.364;2023-10-13T07:01:25;4.13;;;3.72;;
12519;SDS011;6325;49.540;8.364;2023-10-13T07:03:52;4.47;;;3.97;;
12519;SDS011;6325;49.540;8.364;2023-10-13T07:06:26;6.00;;;3.85;;
12519;SDS011;6325;49.540;8.364;2023-10-13T07:08:53;4.90;;;3.88;;
12519;SDS011;6325;49.540;8.364;2023-10-13T07:11:23;4.50;;;3.50;;
12519;SDS011;6325;49.540;8.364;2023-10-13T07:13:59;4.30;;;3.90;;
12519;SDS011;6325;49.540;8.364;2023-10-13T07:16:36;6.45;;;4.00;;
12519;SDS011;6325;49.540;8.364;2023-10-13T07:19:03;4.10;;;3.70;;
12519;SDS011;6325;49.540;8.364;2023-10-13T07:21:31;5.18;;;4.07;;
12519;SDS011;6325;49.540;8.364;2023-10-13T07:23:59;4.28;;;3.88;;
12519;SDS011;6325;49.540;8.364;2023-10-13T07:26:36;4.35;;;3.90;;
12519;SDS011;6325;49.540;8.364;2023-10-13T07:29:07;4.22;;;3.45;;
12519;SDS011;6325;49.540;8.364;2023-10-13T07:31:36;5.00;;;3.87;;
12519;SDS011;6325;49.540;8.364;2023-10-13T07:34:06;6.90;;;3.80;;
12519;SDS011;6325;49.540;8.364;2023-10-13T07:36:38;4.95;;;3.70;;
12519;SDS011;6325;49.540;8.364;2023-10-13T07:39:05;4.20;;;3.50;;
12519;SDS011;6325;49.540;8.364;2023-10-13T07:41:45;4.22;;;3.40;;
12519;SDS011;6325;49.540;8.364;2023-10-13T07:44:16;5.20;;;3.78;;
12519;SDS011;6325;49.540;8.364;2023-10-13T07:46:46;4.85;;;3.75;;
12519;SDS011;6325;49.540;8.364;2023-10-13T07:49:23;4.03;;;3.50;;
12519;SDS011;6325;49.540;8.364;2023-10-13T07:51:55;4.78;;;3.60;;
12519;SDS011;6325;49.540;8.364;2023-10-13T07:54:25;7.22;;;4.15;;
12519;SDS011;6325;49.540;8.364;2023-10-13T07:56:52;14.25;;;5.50;;
12519;SDS011;6325;49.540;8.364;2023-10-13T07:59:20;6.65;;;4.00;;
12519;SDS011;6325;49.540;8.364;2023-10-13T08:01:50;6.50;;;4.27;;
12519;SDS011;6325;49.540;8.364;2023-10-13T08:04:31;8.13;;;4.35;;
12519;SDS011;6325;49.540;8.364;2023-10-13T08:07:00;8.30;;;4.30;;
12519;SDS011;6325;49.540;8.364;2023-10-13T08:09:37;5.20;;;4.10;;
12519;SDS011;6325;49.540;8.364;2023-10-13T08:12:06;4.75;;;3.70;;
12519;SDS011;6325;49.540;8.364;2023-10-13T08:14:37;3.77;;;3.17;;
12519;SDS011;6325;49.540;8.364;2023-10-13T08:17:07;5.07;;;3.92;;
12519;SDS011;6325;49.540;8.364;2023-10-13T08:19:35;4.20;;;3.33;;
12519;SDS011;6325;49.540;8.364;2023-10-13T08:22:07;4.43;;;3.40;;
12519;SDS011;6325;49.540;8.364;2023-10-13T08:25:02;3.97;;;3.40;;
12519;SDS011;6325;49.540;8.364;2023-10-13T08:27:45;4.43;;;3.17;;
12519;SDS011;6325;49.540;8.364;2023-10-13T08:30:30;4.35;;;3.20;;
12519;SDS011;6325;49.540;8.364;2023-10-13T08:33:00;4.82;;;3.50;;
12519;SDS011;6325;49.540;8.364;2023-10-13T08:35:41;3.33;;;3.03;;
12519;SDS011;6325;49.540;8.364;2023-10-13T08:38:19;5.35;;;3.10;;
12519;SDS011;6325;49.540;8.364;2023-10-13T08:40:53;4.10;;;3.33;;
12519;SDS011;6325;49.540;8.364;2023-10-13T08:43:50;4.20;;;3.30;;
12519;SDS011;6325;49.540;8.364;2023-10-13T08:46:18;3.73;;;3.20;;
12519;SDS011;6325;49.540;8.364;2023-10-13T08:48:56;4.75;;;3.17;;
12519;SDS011;6325;49.540;8.364;2023-10-13T08:51:34;4.05;;;3.25;;
12519;SDS011;6325;49.540;8.364;2023-10-13T08:54:14;5.35;;;3.13;;
12519;SDS011;6325;49.540;8.364;2023-10-13T08:56:59;4.33;;;3.50;;
12519;SDS011;6325;49.540;8.364;2023-10-13T08:59:44;4.28;;;3.17;;
12519;SDS011;6325;49.540;8.364;2023-10-13T09:02:18;3.38;;;2.83;;
12519;SDS011;6325;49.540;8.364;2023-10-13T09:04:48;4.33;;;3.30;;
12519;SDS011;6325;49.540;8.364;2023-10-13T09:07:24;6.45;;;3.53;;
12519;SDS011;6325;49.540;8.364;2023-10-13T09:09:51;4.35;;;3.10;;
12519;SDS011;6325;49.540;8.364;2023-10-13T09:12:36;5.32;;;3.25;;
12519;SDS011;6325;49.540;8.364;2023-10-13T09:15:05;4.97;;;3.60;;
12519;SDS011;6325;49.540;8.364;2023-10-13T09:17:43;3.88;;;2.97;;
12519;SDS011;6325;49.540;8.364;2023-10-13T09:20:14;4.70;;;3.15;;
12519;SDS011;6325;49.540;8.364;2023-10-13T09:22:57;4.40;;;3.20;;
12519;SDS011;6325;49.540;8.364;2023-10-13T09:25:34;4.32;;;3.30;;
12519;SDS011;6325;49.540;8.364;2023-10-13T09:28:01;4.90;;;3.30;;
12519;SDS011;6325;49.540;8.364;2023-10-13T09:30:35;3.80;;;3.10;;
12519;SDS011;6325;49.540;8.364;2023-10-13T09:33:01;3.45;;;3.15;;
12519;SDS011;6325;49.540;8.364;2023-10-13T09:35:31;4.15;;;3.22;;
12519;SDS011;6325;49.540;8.364;2023-10-13T09:37:59;4.05;;;3.03;;
12519;SDS011;6325;49.540;8.364;2023-10-13T09:40:27;3.93;;;2.90;;
12519;SDS011;6325;49.540;8.364;2023-10-13T09:42:59;3.97;;;3.05;;
12519;SDS011;6325;49.540;8.364;2023-10-13T09:45:33;3.72;;;2.70;;
12519;SDS011;6325;49.540;8.364;2023-10-13T09:48:01;4.18;;;3.13;;
12519;SDS011;6325;49.540;8.364;2023-10-13T09:50:33;3.35;;;3.05;;
12519;SDS011;6325;49.540;8.364;2023-10-13T09:53:02;3.53;;;2.97;;
12519;SDS011;6325;49.540;8.364;2023-10-13T09:55:35;4.57;;;2.97;;
12519;SDS011;6325;49.540;8.364;2023-10-13T09:58:04;3.75;;;3.13;;
12519;SDS011;6325;49.540;8.364;2023-10-13T10:00:37;3.40;;;3.10;;
12519;SDS011;6325;49.540;8.364;2023-10-13T10:03:21;5.70;;;3.25;;
12519;SDS011;6325;49.540;8.364;2023-10-13T10:06:06;5.03;;;3.15;;
12519;SDS011;6325;49.540;8.364;2023-10-13T10:08:39;3.78;;;3.13;;
12519;SDS011;6325;49.540;8.364;2023-10-13T10:14:04;4.72;;;3.33;;
12519;SDS011;6325;49.540;8.364;2023-10-13T10:16:37;5.45;;;3.13;;
12519;SDS011;6325;49.540;8.364;2023-10-13T10:19:06;4.07;;;3.00;;
12519;SDS011;6325;49.540;8.364;2023-10-13T10:21:35;2.80;;;2.60;;
12519;SDS011;6325;49.540;8.364;2023-10-13T10:24:13;5.88;;;3.20;;
12519;SDS011;6325;49.540;8.364;2023-10-13T10:26:52;5.15;;;2.90;;
12519;SDS011;6325;49.540;8.364;2023-10-13T10:29:19;4.68;;;3.00;;
12519;SDS011;6325;49.540;8.364;2023-10-13T10:31:46;3.90;;;3.10;;
12519;SDS011;6325;49.540;8.364;2023-10-13T10:34:13;4.47;;;3.00;;
12519;SDS011;6325;49.540;8.364;2023-10-13T10:36:44;3.97;;;3.10;;
12519;SDS011;6325;49.540;8.364;2023-10-13T10:39:13;4.43;;;3.00;;
12519;SDS011;6325;49.540;8.364;2023-10-13T10:41:42;3.10;;;2.80;;
12519;SDS011;6325;49.540;8.364;2023-10-13T10:44:17;4.15;;;3.20;;
12519;SDS011;6325;49.540;8.364;2023-10-13T10:47:07;4.95;;;2.88;;
12519;SDS011;6325;49.540;8.364;2023-10-13T10:49:36;4.43;;;2.73;;
12519;SDS011;6325;49.540;8.364;2023-10-13T10:52:05;4.28;;;2.92;;
12519;SDS011;6325;49.540;8.364;2023-10-13T10:54:43;4.20;;;2.80;;
12519;SDS011;6325;49.540;8.364;2023-10-13T10:57:16;4.88;;;2.90;;
12519;SDS011;6325;49.540;8.364;2023-10-13T10:59:44;3.40;;;2.80;;
12519;SDS011;6325;49.540;8.364;2023-10-13T11:02:11;3.65;;;3.00;;
12519;SDS011;6325;49.540;8.364;2023-10-13T11:04:43;3.67;;;2.90;;
12519;SDS011;6325;49.540;8.364;2023-10-13T11:07:22;3.95;;;2.92;;
12519;SDS011;6325;49.540;8.364;2023-10-13T11:09:49;3.42;;;3.08;;
12519;SDS011;6325;49.540;8.364;2023-10-13T11:12:22;3.90;;;2.77;;
12519;SDS011;6325;49.540;8.364;2023-10-13T11:15:02;3.73;;;2.80;;
12519;SDS011;6325;49.540;8.364;2023-10-13T11:17:37;3.95;;;2.88;;
12519;SDS011;6325;49.540;8.364;2023-10-13T11:20:08;7.93;;;3.40;;
12519;SDS011;6325;49.540;8.364;2023-10-13T11:22:42;4.68;;;3.00;;
12519;SDS011;6325;49.540;8.364;2023-10-13T11:25:19;3.53;;;2.70;;
12519;SDS011;6325;49.540;8.364;2023-10-13T11:27:48;4.07;;;2.90;;
12519;SDS011;6325;49.540;8.364;2023-10-13T11:30:22;5.10;;;2.97;;
12519;SDS011;6325;49.540;8.364;2023-10-13T11:32:58;5.97;;;3.20;;
12519;SDS011;6325;49.540;8.364;2023-10-13T11:35:26;3.58;;;2.75;;
12519;SDS011;6325;49.540;8.364;2023-10-13T11:38:15;3.27;;;2.80;;
12519;SDS011;6325;49.540;8.364;2023-10-13T11:40:50;3.35;;;3.05;;
12519;SDS011;6325;49.540;8.364;2023-10-13T11:43:37;3.15;;;2.90;;
12519;SDS011;6325;49.540;8.364;2023-10-13T11:46:23;3.67;;;3.30;;
12519;SDS011;6325;49.540;8.364;2023-10-13T11:49:20;3.95;;;2.80;;
12519;SDS011;6325;49.540;8.364;2023-10-13T11:51:59;3.80;;;2.90;;
12519;SDS011;6325;49.540;8.364;2023-10-13T11:54:46;4.75;;;3.00;;
12519;SDS011;6325;49.540;8.364;2023-10-13T11:57:13;5.28;;;2.85;;
12519;SDS011;6325;49.540;8.364;2023-10-13T11:59:44;4.17;;;2.93;;
12519;SDS011;6325;49.540;8.364;2023-10-13T12:02:18;3.87;;;2.80;;
12519;SDS011;6325;49.540;8.364;2023-10-13T12:05:03;3.50;;;3.20;;
12519;SDS011;6325;49.540;8.364;2023-10-13T12:07:36;4.90;;;3.00;;
12519;SDS011;6325;49.540;8.364;2023-10-13T12:10:14;3.50;;;3.20;;
12519;SDS011;6325;49.540;8.364;2023-10-13T12:12:45;4.03;;;3.10;;
12519;SDS011;6325;49.540;8.364;2023-10-13T12:15:18;3.30;;;3.00;;
12519;SDS011;6325;49.540;8.364;2023-10-13T12:17:59;3.80;;;2.90;;
12519;SDS011;6325;49.540;8.364;2023-10-13T12:20:28;6.85;;;3.30;;
12519;SDS011;6325;49.540;8.364;2023-10-13T12:22:59;6.07;;;3.17;;
12519;SDS011;6325;49.540;8.364;2023-10-13T12:25:41;5.22;;;2.70;;
12519;SDS011;6325;49.540;8.364;2023-10-13T12:28:22;4.72;;;3.08;;
12519;SDS011;6325;49.540;8.364;2023-10-13T12:30:51;4.33;;;3.10;;
12519;SDS011;6325;49.540;8.364;2023-10-13T12:33:18;2.70;;;2.50;;
12519;SDS011;6325;49.540;8.364;2023-10-13T12:36:01;3.20;;;2.50;;
12519;SDS011;6325;49.540;8.364;2023-10-13T12:38:45;3.35;;;3.00;;
12519;SDS011;6325;49.540;8.364;2023-10-13T12:41:31;5.57;;;2.97;;
12519;SDS011;6325;49.540;8.364;2023-10-13T12:44:16;3.03;;;2.70;;
12519;SDS011;6325;49.540;8.364;2023-10-13T12:47:01;4.18;;;3.10;;
12519;SDS011;6325;49.540;8.364;2023-10-13T12:49:46;4.13;;;2.80;;
12519;SDS011;6325;49.540;8.364;2023-10-13T12:52:22;3.33;;;2.67;;
12519;SDS011;6325;49.540;8.364;2023-10-13T12:54:51;4.55;;;2.88;;
12519;SDS011;6325;49.540;8.364;2023-10-13T12:57:32;4.70;;;2.90;;
12519;SDS011;6325;49.540;8.364;2023-10-13T12:59:59;3.60;;;2.92;;
12519;SDS011;6325;49.540;8.364;2023-10-13T13:02:41;4.90;;;2.90;;
12519;SDS011;6325;49.540;8.364;2023-10-13T13:05:08;5.15;;;2.70;;
12519;SDS011;6325;49.540;8.364;2023-10-13T13:07:38;5.65;;;3.22;;
12519;SDS011;6325;49.540;8.364;2023-10-13T13:10:12;3.30;;;2.90;;
12519;SDS011;6325;49.540;8.364;2023-10-13T13:12:41;3.10;;;2.80;;
12519;SDS011;6325;49.540;8.364;2023-10-13T13:15:08;3.92;;;2.70;;
12519;SDS011;6325;49.540;8.364;2023-10-13T13:17:37;3.20;;;2.72;;
12519;SDS011;6325;49.540;8.364;2023-10-13T13:20:04;7.07;;;3.35;;
12519;SDS011;6325;49.540;8.364;2023-10-13T13:22:37;4.93;;;3.10;;
12519;SDS011;6325;49.540;8.364;2023-10-13T13:25:04;6.43;;;3.17;;
12519;SDS011;6325;49.540;8.364;2023-10-13T13:27:35;2.80;;;2.55;;
12519;SDS011;6325;49.540;8.364;2023-10-13T13:30:08;4.13;;;2.80;;
12519;SDS011;6325;49.540;8.364;2023-10-13T13:32:38;3.30;;;2.40;;
12519;SDS011;6325;49.540;8.364;2023-10-13T13:35:06;4.90;;;3.08;;
12519;SDS011;6325;49.540;8.364;2023-10-13T13:37:38;5.43;;;3.22;;
12519;SDS011;6325;49.540;8.364;2023-10-13T13:40:08;5.15;;;2.80;;
12519;SDS011;6325;49.540;8.364;2023-10-13T13:42:40;3.55;;;2.72;;
12519;SDS011;6325;49.540;8.364;2023-10-13T13:45:12;4.60;;;3.33;;
12519;SDS011;6325;49.540;8.364;2023-10-13T13:47:52;6.15;;;3.47;;
12519;SDS011;6325;49.540;8.364;2023-10-13T13:50:20;4.47;;;2.72;;
12519;SDS011;6325;49.540;8.364;2023-10-13T13:52:50;13.82;;;5.72;;
12519;SDS011;6325;49.540;8.364;2023-10-13T13:55:21;7.83;;;3.53;;
12519;SDS011;6325;49.540;8.364;2023-10-13T13:57:48;4.13;;;2.80;;
12519;SDS011;6325;49.540;8.364;2023-10-13T14:00:17;4.22;;;2.88;;
12519;SDS011;6325;49.540;8.364;2023-10-13T14:02:55;6.72;;;3.28;;
12519;SDS011;6325;49.540;8.364;2023-10-13T14:05:22;4.50;;;2.90;;
12519;SDS011;6325;49.540;8.364;2023-10-13T14:07:50;9.43;;;3.40;;
12519;SDS011;6325;49.540;8.364;2023-10-13T14:10:18;10.63;;;4.82;;
12519;SDS011;6325;49.540;8.364;2023-10-13T14:12:59;14.77;;;7.32;;
12519;SDS011;6325;49.540;8.364;2023-10-13T14:15:33;4.15;;;2.88;;
12519;SDS011;6325;49.540;8.364;2023-10-13T14:18:08;4.10;;;2.53;;
12519;SDS011;6325;49.540;8.364;2023-10-13T14:20:39;4.05;;;2.50;;
12519;SDS011;6325;49.540;8.364;2023-10-13T14:23:07;4.28;;;2.78;;
12519;SDS011;6325;49.540;8.364;2023-10-13T14:25:37;4.05;;;2.58;;
12519;SDS011;6325;49.540;8.364;2023-10-13T14:28:04;4.20;;;2.70;;
12519;SDS011;6325;49.540;8.364;2023-10-13T14:30:33;2.97;;;2.63;;
12519;SDS011;6325;49.540;8.364;2023-10-13T14:33:00;4.32;;;2.60;;
12519;SDS011;6325;49.540;8.364;2023-10-13T14:35:27;3.58;;;2.67;;
12519;SDS011;6325;49.540;8.364;2023-10-13T14:37:54;3.95;;;2.30;;
12519;SDS011;6325;49.540;8.364;2023-10-13T14:40:21;3.88;;;2.63;;
12519;SDS011;6325;49.540;8.364;2023-10-13T14:42:48;3.22;;;2.60;;
12519;SDS011;6325;49.540;8.364;2023-10-13T14:45:16;5.07;;;2.72;;
12519;SDS011;6325;49.540;8.364;2023-10-13T14:47:44;3.10;;;2.70;;
12519;SDS011;6325;49.540;8.364;2023-10-13T14:50:12;4.22;;;2.83;;
12519;SDS011;6325;49.540;8.364;2023-10-13T14:52:46;4.30;;;2.60;;
12519;SDS011;6325;49.540;8.364;2023-10-13T14:55:13;3.65;;;2.50;;
12519;SDS011;6325;49.540;8.364;2023-10-13T14:57:46;3.42;;;2.75;;
12519;SDS011;6325;49.540;8.364;2023-10-13T15:00:15;3.78;;;2.63;;
12519;SDS011;6325;49.540;8.364;2023-10-13T15:02:51;4.38;;;2.58;;
12519;SDS011;6325;49.540;8.364;2023-10-13T15:05:19;3.85;;;2.53;;
12519;SDS011;6325;49.540;8.364;2023-10-13T15:07:46;5.70;;;2.50;;
12519;SDS011;6325;49.540;8.364;2023-10-13T15:10:13;4.20;;;2.60;;
12519;SDS011;6325;49.540;8.364;2023-10-13T15:12:41;2.83;;;2.50;;
12519;SDS011;6325;49.540;8.364;2023-10-13T15:15:09;4.30;;;2.70;;
12519;SDS011;6325;49.540;8.364;2023-10-13T15:17:41;3.83;;;2.40;;
12519;SDS011;6325;49.540;8.364;2023-10-13T15:20:10;4.68;;;2.50;;
12519;SDS011;6325;49.540;8.364;2023-10-13T15:22:41;3.53;;;2.40;;
12519;SDS011;6325;49.540;8.364;2023-10-13T15:25:08;2.55;;;2.17;;
12519;SDS011;6325;49.540;8.364;2023-10-13T15:27:43;2.85;;;2.40;;
12519;SDS011;6325;49.540;8.364;2023-10-13T15:30:15;3.78;;;2.53;;
12519;SDS011;6325;49.540;8.364;2023-10-13T15:32:56;3.72;;;2.67;;
12519;SDS011;6325;49.540;8.364;2023-10-13T15:35:24;5.03;;;2.80;;
12519;SDS011;6325;49.540;8.364;2023-10-13T15:37:53;4.18;;;2.80;;
12519;SDS011;6325;49.540;8.364;2023-10-13T15:40:20;3.47;;;2.63;;
12519;SDS011;6325;49.540;8.364;2023-10-13T15:42:49;4.38;;;2.72;;